Timeline UpdatesTrip UpdatesNews PostsPvt PostsTravel TipsAdmin PostsConv PostsFollowed PostsChat RequestsBlog PostsPNR Posts

Disclaimer
Search
 
 
Tue Sep 2, 2014 10:00:17 ISTHomeTrainsΣChainsAtlasPNRForumGalleryNewsFAQTripsMembersLoginFeedback
No Recent News for this Train
Other Trains in the News **new
Latest...
.
Sat May 05, 2012 (10:37PM)
⇐ Return Journey: Train# 54803

54804/Ahmedabad Jodhpur Passenger (UnReserved)

OLD Time-Table. Click here to UPDATE TT
Sep 11 2013 (10:59PM)
Change Departure Station:
Change Arrival Station:
Post a Train Travel TipPost a Train Travel Tip **new
Post a Comment/Question/Picture/VideoPost a Comment/Question/Picture/Video
Pantry/Catering
✕ NO Pantry Car
✕ NO Catering
RSA - Rake Sharing
3 different rounds (6 services) are run by the rakes of this train. 54803 Jodhpur (JU) - Ahemedabad (ADI) becomes 54806 for Ahmedabad - Ajmer (AII) which further goes to Jaipur (JP) as 54807. 54808 comes from Jaipur to Ajmer which further goes to Ahmedabad as 54805 and becomes...
Read more...
54804 from Ahmedabad to Jodhpur.
Rake/Coach Composition
Loco
WDM 2A ABR Shed.
News    PNR    Forum    Time-Table    Availability    Fare Chart    Map    Arr/Dep History    Trips    Gallery    ΣChains    X/O    Timeline    
Travel Time: 6h 52m    25 halts    Distance: 218 km    Avg Speed: 31 km/hr
Type: Passenger
Zone: NWR/North Western
Departs @ 13:43
Platform# ???
SMTWTFS
Keshavganj/KVJ 
Arrives @ 20:35
Platform# ???
SMTWTFS
Jodhpur Junction/JU 

25 halts. 26 intermediate Stations between Keshavganj and Jodhpur Junction

Show ALL intermediate Stations  

#CodeStation NameX/OArrivesAvgDepartsAvgHaltPFDay#KmSpeedElevZoneAddress
1ADIAhmedabad Junction (12)  -06:15-91-242.62551mWRAhmedabad, Gujarat
2SBTSabarmati Junction (3)  06:28-06:30-2m--1-237.24652mWRAhmedabad, Gujarat
3CLDBChandlodiya BX  06:40-06:42-2m--1-229.54455mWRAhmedabad, Gujarat
4KHDBKhodiyar  06:52-06:54-2m--1-222.14764mWRKhodiyar, Gujarat
5KLLKalol (3)  07:08-07:10-2m--1-211.24971mWRKalol, Gujarat
6JULJhulasan (3)X  07:22-07:24-2m--1-201.42677mWRMehsana, Gujarat
7DNWDangarwaX  07:39-07:41-2m--1-194.86683mWRJagudan, Gujarat
8UMNAmbliyasan  07:48-07:50-2m--1-187.13490mWRMehsana, Gujarat
9JDNJagudanX  08:04-08:06-2m--1-179.21790mWRKochva Road, Gujarat
10MSHMahesana Junction (6)X  08:40-08:50-10m--1-169.47495mWRMehsana, Gujarat
11BHUBhandu Motidau  08:59-09:01-2m--1-158.37297mWRMahesana, Gujarat
12UJAUnjhaO  09:10-09:12-2m--1-147.563116mWRUnjha, Gujarat
13KMLIKamli  09:19-09:21-2m--1-140.263126mWRChhapi, Gujarat
14SIDSiddhpur  09:27-09:29-2m--1-133.842136mWRState Highway 41, Gujarat
15DRWDharewada  09:37-09:39-2m--1-128.357145mWRUnjha, Gujarat
16CHPChhapi  09:47-09:49-2m--1-120.659169mWRBanaskantha, Gujarat
17UMUmardashi  09:57-09:59-2m--1-112.821187mWRChitrasani, Gujarat
18PNUPalanpur Junction (5)XO  10:23-10:28-5m--1-104.445216mWRPalanpur, Gujarat
19KRJDKarjodaXO  10:36-10:37-1m--1-98.454234mNWRChhapi, Gujarat
20CTTChitrasani  10:43-10:44-1m--1-92.944225mNWRChitrasani, Gujarat
21JTYJethiO  10:50-10:52-2m--1-88.553212mNWRBANASKANTHA, Gujarat
22IQGIqbal GadhXO  10:59-11:00-1m--1-82.464209mNWRBanaskantha, Gujarat
23SZASarotra Road  11:07-11:08-1m--1-74.954216mNWRSarotra, Gujarat
24SIMShri AmirgadhX  11:14-11:15-1m--1-69.556229mNWRAmirgadh, Gujarat
25MAAMavalXO  11:24-11:25-1m--1-61.222245mNWRNational Highway 14, Rajasthan
26ABRAbu Road (3)X  11:50-12:15-25m11-51.821264mNWRSirohi Dist, Rajasthan
27MXOMorthala  12:24-12:25-1m--1-48.744267mNWRNH 14, Rajasthan
28KWIKivarli  12:33-12:34-1m--1-42.843281mNWRShri Amirgadh, Rajasthan
29BMNBhimana  12:45-12:46-1m--1-35.057313mNWRAbu Road, Rajasthan
30SRPJSwarupGanjO  12:55-12:56-1m--1-26.424334mNWRSirohi Road, Rajasthan
31BNSBanas  13:17-13:18-1m--1-18.055347mNWRSirohi Road, Rajasthan
32SOHSirohi Road (2)  13:29-13:30-1m--1-7.940369mNWRPindwara, Rajasthan
33KVJ»Keshavganj»XO  13:42-13:43-1m--10.011393mNWRJawai Bandh, Rajasthan
34NANANanaX  14:34-14:35-1m--19.011355mNWRNana, Rajasthan
35KTRKothar  15:09-15:10-1m--115.254346mNWRPali, Rajasthan
36MOIMori Bera  15:17-15:18-1m--121.563323mNWRNana, Rajasthan
37JWBJawai Bandh  15:27-15:28-1m--130.955292mNWRPali, Rajasthan
38BRLYBiroliya  15:37-15:38-1m--139.153294mNWRBiroliya Rd, Rajasthan
39FAFalna (2)X  15:47-15:50-3m--147.169282mNWRFalna, Rajasthan
40KZQKhimel  15:57-15:58-1m--155.155277mNWRJawai Bandh, Rajasthan
41RANIRani  16:05-16:06-1m--161.554280mNWRRania, Rajasthan
42BGPRBhagwanpura  16:15-16:16-1m--169.657276mNWRSomesar, Rajasthan
43JALJawali  16:24-16:25-1m--177.263270mNWRRania, Rajasthan
44SOSSomesar  16:33-16:34-1m--185.652269mNWRSomesar, Rajasthan
45BWABhinwaliyaX  16:41-16:42-1m--191.651268mNWRPindwara, Rajasthan
46BGGBanta Raghunathgarh  16:49-16:50-1m--197.655266mNWRSomesar, Rajasthan
47AUWAAuwa (2)X  16:58-16:59-1m--1104.920265mNWRSomesar, Rajasthan
48MJMarwar Junction (4)  17:25-17:35-10m--1113.570267mNWRMarwar Junction, Rajasthan
49RKZRajkiawas  17:44-17:46-2m--1124.069245mNWRMarwar, Rajasthan
50BOMBomadraX  17:54-17:56-2m--1133.361234mNWRPali Marwar, Rajasthan
51PMYPali Marwar (2)  18:07-18:09-2m--1144.557221mNWRPali, Rajasthan
52KAIKairla  18:25-18:27-2m--1159.672213mNWRPali, Rajasthan
53RTRohat  18:38-18:40-2m--1172.860183mNWRSH 64, Rajasthan
54LUNILuni Junction (3)  18:53-18:56-3m--1185.764180mNWRLuni, Rajasthan
55HWTHanwantX  19:02-19:04-2m--1192.143185mNWRBasni, Rajasthan
56SZSalawasX  19:17-19:19-2m--1201.563193mNWRLuni, Rajasthan
57BANEBasniXO  19:28-19:30-2m--1210.96219mNWRJodhpur, Rajasthan
58BGKTBhagat Ki Kothi (3)  20:03-20:05-2m--1214.07229mNWRJodhpur, Rajasthan
59JU•Jodhpur Junction (5)•  20:35----1217.5-241mNWRJodhpur, Rajasthan
Scroll to Top
Scroll to Bottom